sensor_id;sensor_type;location;lat;lon;timestamp;temperature;humidity
21033;DHT22;10675;47.976;7.824;2023-03-19T00:01:27;12.10;72.30
21033;DHT22;10675;47.976;7.824;2023-03-19T00:03:53;12.10;72.50
21033;DHT22;10675;47.976;7.824;2023-03-19T00:06:19;12.10;72.50
21033;DHT22;10675;47.976;7.824;2023-03-19T00:08:44;12.10;71.40
21033;DHT22;10675;47.976;7.824;2023-03-19T00:11:12;12.10;71.00
21033;DHT22;10675;47.976;7.824;2023-03-19T00:13:38;12.30;69.10
21033;DHT22;10675;47.976;7.824;2023-03-19T00:16:05;12.30;69.10
21033;DHT22;10675;47.976;7.824;2023-03-19T00:18:31;12.40;68.50
21033;DHT22;10675;47.976;7.824;2023-03-19T00:20:56;12.50;67.00
21033;DHT22;10675;47.976;7.824;2023-03-19T00:23:22;12.50;67.00
21033;DHT22;10675;47.976;7.824;2023-03-19T00:25:47;12.60;66.00
21033;DHT22;10675;47.976;7.824;2023-03-19T00:28:13;12.80;64.40
21033;DHT22;10675;47.976;7.824;2023-03-19T00:30:39;12.90;64.00
21033;DHT22;10675;47.976;7.824;2023-03-19T00:33:05;12.80;64.80
21033;DHT22;10675;47.976;7.824;2023-03-19T00:35:30;12.80;64.40
21033;DHT22;10675;47.976;7.824;2023-03-19T00:37:56;12.80;64.30
21033;DHT22;10675;47.976;7.824;2023-03-19T00:40:22;13.00;62.90
21033;DHT22;10675;47.976;7.824;2023-03-19T00:42:48;13.20;61.10
21033;DHT22;10675;47.976;7.824;2023-03-19T00:45:13;13.40;60.90
21033;DHT22;10675;47.976;7.824;2023-03-19T00:47:39;13.40;61.60
21033;DHT22;10675;47.976;7.824;2023-03-19T00:50:05;13.50;63.20
21033;DHT22;10675;47.976;7.824;2023-03-19T00:52:31;13.40;65.90
21033;DHT22;10675;47.976;7.824;2023-03-19T00:54:57;13.40;66.50
21033;DHT22;10675;47.976;7.824;2023-03-19T00:57:22;13.20;68.10
21033;DHT22;10675;47.976;7.824;2023-03-19T00:59:48;13.20;68.50
21033;DHT22;10675;47.976;7.824;2023-03-19T01:02:14;13.10;70.00
21033;DHT22;10675;47.976;7.824;2023-03-19T01:04:39;13.10;70.50
21033;DHT22;10675;47.976;7.824;2023-03-19T01:07:05;13.00;70.70
21033;DHT22;10675;47.976;7.824;2023-03-19T01:09:31;13.00;71.80
21033;DHT22;10675;47.976;7.824;2023-03-19T01:11:57;13.00;71.40
21033;DHT22;10675;47.976;7.824;2023-03-19T01:14:23;12.90;73.20
21033;DHT22;10675;47.976;7.824;2023-03-19T01:16:49;12.80;73.60
21033;DHT22;10675;47.976;7.824;2023-03-19T01:19:15;12.80;74.60
21033;DHT22;10675;47.976;7.824;2023-03-19T01:21:40;12.60;75.50
21033;DHT22;10675;47.976;7.824;2023-03-19T01:24:10;12.50;76.20
21033;DHT22;10675;47.976;7.824;2023-03-19T01:26:36;12.50;76.30
21033;DHT22;10675;47.976;7.824;2023-03-19T01:29:02;12.40;76.90
21033;DHT22;10675;47.976;7.824;2023-03-19T01:31:27;12.30;77.90
21033;DHT22;10675;47.976;7.824;2023-03-19T01:33:53;12.20;78.10
21033;DHT22;10675;47.976;7.824;2023-03-19T01:36:19;12.20;78.80
21033;DHT22;10675;47.976;7.824;2023-03-19T01:38:44;12.20;79.60
21033;DHT22;10675;47.976;7.824;2023-03-19T01:41:10;12.10;80.70
21033;DHT22;10675;47.976;7.824;2023-03-19T01:43:36;12.10;80.70
21033;DHT22;10675;47.976;7.824;2023-03-19T01:48:52;12.00;81.90
21033;DHT22;10675;47.976;7.824;2023-03-19T01:51:25;12.00;84.00
21033;DHT22;10675;47.976;7.824;2023-03-19T01:53:56;12.00;83.80
21033;DHT22;10675;47.976;7.824;2023-03-19T01:56:33;12.10;81.40
21033;DHT22;10675;47.976;7.824;2023-03-19T01:59:03;12.40;77.70
21033;DHT22;10675;47.976;7.824;2023-03-19T02:01:32;12.50;76.60
21033;DHT22;10675;47.976;7.824;2023-03-19T02:03:59;12.60;76.00
21033;DHT22;10675;47.976;7.824;2023-03-19T02:06:25;12.60;76.80
21033;DHT22;10675;47.976;7.824;2023-03-19T02:08:52;12.40;80.00
21033;DHT22;10675;47.976;7.824;2023-03-19T02:11:20;12.20;81.80
21033;DHT22;10675;47.976;7.824;2023-03-19T02:13:46;12.10;82.50
21033;DHT22;10675;47.976;7.824;2023-03-19T02:16:12;12.00;83.30
21033;DHT22;10675;47.976;7.824;2023-03-19T02:18:38;12.00;83.30
21033;DHT22;10675;47.976;7.824;2023-03-19T02:21:14;12.00;83.30
21033;DHT22;10675;47.976;7.824;2023-03-19T02:23:54;12.00;83.30
21033;DHT22;10675;47.976;7.824;2023-03-19T02:26:23;11.90;84.60
21033;DHT22;10675;47.976;7.824;2023-03-19T02:28:50;11.80;85.10
21033;DHT22;10675;47.976;7.824;2023-03-19T02:31:17;11.80;85.40
21033;DHT22;10675;47.976;7.824;2023-03-19T02:33:43;11.80;85.70
21033;DHT22;10675;47.976;7.824;2023-03-19T02:36:13;11.90;86.10
21033;DHT22;10675;47.976;7.824;2023-03-19T02:38:42;11.80;86.00
21033;DHT22;10675;47.976;7.824;2023-03-19T02:41:09;11.80;85.80
21033;DHT22;10675;47.976;7.824;2023-03-19T02:43:37;11.80;84.80
21033;DHT22;10675;47.976;7.824;2023-03-19T02:46:06;11.80;85.10
21033;DHT22;10675;47.976;7.824;2023-03-19T02:48:32;11.90;84.10
21033;DHT22;10675;47.976;7.824;2023-03-19T02:50:58;11.60;84.40
21033;DHT22;10675;47.976;7.824;2023-03-19T02:53:24;11.80;85.00
21033;DHT22;10675;47.976;7.824;2023-03-19T02:55:49;11.80;84.80
21033;DHT22;10675;47.976;7.824;2023-03-19T02:58:15;11.80;85.10
21033;DHT22;10675;47.976;7.824;2023-03-19T03:00:41;11.70;84.50
21033;DHT22;10675;47.976;7.824;2023-03-19T03:03:07;11.70;85.90
21033;DHT22;10675;47.976;7.824;2023-03-19T03:05:33;11.60;87.20
21033;DHT22;10675;47.976;7.824;2023-03-19T03:07:59;11.50;88.50
21033;DHT22;10675;47.976;7.824;2023-03-19T03:10:25;11.40;88.60
21033;DHT22;10675;47.976;7.824;2023-03-19T03:12:50;11.50;88.70
21033;DHT22;10675;47.976;7.824;2023-03-19T03:15:16;11.40;89.80
21033;DHT22;10675;47.976;7.824;2023-03-19T03:17:43;11.40;90.00
21033;DHT22;10675;47.976;7.824;2023-03-19T03:20:11;11.30;90.20
21033;DHT22;10675;47.976;7.824;2023-03-19T03:22:38;11.30;90.20
21033;DHT22;10675;47.976;7.824;2023-03-19T03:25:04;11.30;90.60
21033;DHT22;10675;47.976;7.824;2023-03-19T03:27:30;11.20;91.40
21033;DHT22;10675;47.976;7.824;2023-03-19T03:29:56;11.20;92.00
21033;DHT22;10675;47.976;7.824;2023-03-19T03:32:22;11.20;92.50
21033;DHT22;10675;47.976;7.824;2023-03-19T03:34:48;11.10;93.00
21033;DHT22;10675;47.976;7.824;2023-03-19T03:37:13;11.10;93.50
21033;DHT22;10675;47.976;7.824;2023-03-19T03:39:39;11.10;93.00
21033;DHT22;10675;47.976;7.824;2023-03-19T03:42:05;11.10;92.50
21033;DHT22;10675;47.976;7.824;2023-03-19T03:44:30;11.10;93.00
21033;DHT22;10675;47.976;7.824;2023-03-19T03:46:56;11.00;93.00
21033;DHT22;10675;47.976;7.824;2023-03-19T03:49:22;11.00;92.90
21033;DHT22;10675;47.976;7.824;2023-03-19T03:51:47;11.00;92.70
21033;DHT22;10675;47.976;7.824;2023-03-19T03:54:13;11.00;92.40
21033;DHT22;10675;47.976;7.824;2023-03-19T03:56:39;11.00;92.50
21033;DHT22;10675;47.976;7.824;2023-03-19T03:59:05;11.00;92.40
21033;DHT22;10675;47.976;7.824;2023-03-19T04:01:31;11.00;92.70
21033;DHT22;10675;47.976;7.824;2023-03-19T04:03:58;11.00;92.70
21033;DHT22;10675;47.976;7.824;2023-03-19T04:06:25;10.90;92.60
21033;DHT22;10675;47.976;7.824;2023-03-19T04:08:51;11.00;93.00
21033;DHT22;10675;47.976;7.824;2023-03-19T04:11:17;11.00;93.10
21033;DHT22;10675;47.976;7.824;2023-03-19T04:13:42;11.00;93.00
21033;DHT22;10675;47.976;7.824;2023-03-19T04:16:09;11.00;93.20
21033;DHT22;10675;47.976;7.824;2023-03-19T04:18:36;11.00;92.90
21033;DHT22;10675;47.976;7.824;2023-03-19T04:21:05;10.90;92.80
21033;DHT22;10675;47.976;7.824;2023-03-19T04:23:31;11.00;92.50
21033;DHT22;10675;47.976;7.824;2023-03-19T04:26:01;11.00;92.10
21033;DHT22;10675;47.976;7.824;2023-03-19T04:28:27;11.10;91.50
21033;DHT22;10675;47.976;7.824;2023-03-19T04:30:58;11.10;91.60
21033;DHT22;10675;47.976;7.824;2023-03-19T04:33:24;11.10;91.20
21033;DHT22;10675;47.976;7.824;2023-03-19T04:35:49;11.10;90.90
21033;DHT22;10675;47.976;7.824;2023-03-19T04:38:15;11.10;91.10
21033;DHT22;10675;47.976;7.824;2023-03-19T04:40:40;11.10;90.90
21033;DHT22;10675;47.976;7.824;2023-03-19T04:43:06;11.10;91.00
21033;DHT22;10675;47.976;7.824;2023-03-19T04:45:31;11.10;91.20
21033;DHT22;10675;47.976;7.824;2023-03-19T04:47:57;11.10;91.50
21033;DHT22;10675;47.976;7.824;2023-03-19T04:50:23;11.00;91.80
21033;DHT22;10675;47.976;7.824;2023-03-19T04:52:49;10.90;92.00
21033;DHT22;10675;47.976;7.824;2023-03-19T04:55:15;10.90;92.30
21033;DHT22;10675;47.976;7.824;2023-03-19T04:57:40;10.80;92.50
21033;DHT22;10675;47.976;7.824;2023-03-19T05:00:06;10.80;92.80
21033;DHT22;10675;47.976;7.824;2023-03-19T05:02:32;10.80;92.80
21033;DHT22;10675;47.976;7.824;2023-03-19T05:04:58;10.70;92.60
21033;DHT22;10675;47.976;7.824;2023-03-19T05:07:23;10.70;92.80
21033;DHT22;10675;47.976;7.824;2023-03-19T05:09:49;10.70;92.70
21033;DHT22;10675;47.976;7.824;2023-03-19T05:12:14;10.70;92.90
21033;DHT22;10675;47.976;7.824;2023-03-19T05:14:40;10.70;93.00
21033;DHT22;10675;47.976;7.824;2023-03-19T05:17:05;10.60;93.10
21033;DHT22;10675;47.976;7.824;2023-03-19T05:19:31;10.60;93.00
21033;DHT22;10675;47.976;7.824;2023-03-19T05:21:58;10.60;93.10
21033;DHT22;10675;47.976;7.824;2023-03-19T05:24:24;10.60;93.20
21033;DHT22;10675;47.976;7.824;2023-03-19T05:26:50;10.60;93.20
21033;DHT22;10675;47.976;7.824;2023-03-19T05:29:15;10.50;93.00
21033;DHT22;10675;47.976;7.824;2023-03-19T05:31:41;10.60;93.40
21033;DHT22;10675;47.976;7.824;2023-03-19T05:34:07;10.60;93.60
21033;DHT22;10675;47.976;7.824;2023-03-19T05:36:32;10.50;93.40
21033;DHT22;10675;47.976;7.824;2023-03-19T05:38:59;10.70;92.00
21033;DHT22;10675;47.976;7.824;2023-03-19T05:41:25;10.70;92.00
21033;DHT22;10675;47.976;7.824;2023-03-19T05:43:50;10.70;92.10
21033;DHT22;10675;47.976;7.824;2023-03-19T05:46:16;10.60;92.00
21033;DHT22;10675;47.976;7.824;2023-03-19T05:48:42;10.60;92.20
21033;DHT22;10675;47.976;7.824;2023-03-19T05:51:07;10.60;92.30
21033;DHT22;10675;47.976;7.824;2023-03-19T05:53:33;10.90;92.40
21033;DHT22;10675;47.976;7.824;2023-03-19T05:55:59;10.50;92.30
21033;DHT22;10675;47.976;7.824;2023-03-19T05:58:24;10.50;92.80
21033;DHT22;10675;47.976;7.824;2023-03-19T06:00:53;10.50;93.00
21033;DHT22;10675;47.976;7.824;2023-03-19T06:03:20;10.40;93.10
21033;DHT22;10675;47.976;7.824;2023-03-19T06:05:48;10.40;92.90
21033;DHT22;10675;47.976;7.824;2023-03-19T06:08:14;10.30;92.70
21033;DHT22;10675;47.976;7.824;2023-03-19T06:10:40;10.30;93.00
21033;DHT22;10675;47.976;7.824;2023-03-19T06:13:05;10.30;93.30
21033;DHT22;10675;47.976;7.824;2023-03-19T06:15:31;10.20;93.30
21033;DHT22;10675;47.976;7.824;2023-03-19T06:17:57;10.20;93.70
21033;DHT22;10675;47.976;7.824;2023-03-19T06:20:22;10.10;94.10
21033;DHT22;10675;47.976;7.824;2023-03-19T06:22:48;10.10;94.20
21033;DHT22;10675;47.976;7.824;2023-03-19T06:25:13;10.00;94.00
21033;DHT22;10675;47.976;7.824;2023-03-19T06:27:39;10.00;94.10
21033;DHT22;10675;47.976;7.824;2023-03-19T06:30:05;9.90;94.30
21033;DHT22;10675;47.976;7.824;2023-03-19T06:32:31;10.00;94.10
21033;DHT22;10675;47.976;7.824;2023-03-19T06:34:57;10.00;93.70
21033;DHT22;10675;47.976;7.824;2023-03-19T06:37:22;10.10;93.10
21033;DHT22;10675;47.976;7.824;2023-03-19T06:39:48;10.10;92.90
21033;DHT22;10675;47.976;7.824;2023-03-19T06:42:14;10.20;92.90
21033;DHT22;10675;47.976;7.824;2023-03-19T06:44:39;10.20;92.90
21033;DHT22;10675;47.976;7.824;2023-03-19T06:47:05;10.30;92.80
21033;DHT22;10675;47.976;7.824;2023-03-19T06:49:31;10.30;92.60
21033;DHT22;10675;47.976;7.824;2023-03-19T06:51:56;10.40;92.30
21033;DHT22;10675;47.976;7.824;2023-03-19T06:54:22;10.50;92.10
21033;DHT22;10675;47.976;7.824;2023-03-19T06:56:47;10.60;92.10
21033;DHT22;10675;47.976;7.824;2023-03-19T06:59:13;10.80;91.60
21033;DHT22;10675;47.976;7.824;2023-03-19T07:01:40;11.10;91.30
21033;DHT22;10675;47.976;7.824;2023-03-19T07:04:06;11.30;91.10
21033;DHT22;10675;47.976;7.824;2023-03-19T07:06:32;11.40;90.90
21033;DHT22;10675;47.976;7.824;2023-03-19T07:08:59;11.70;90.70
21033;DHT22;10675;47.976;7.824;2023-03-19T07:11:25;11.90;89.80
21033;DHT22;10675;47.976;7.824;2023-03-19T07:13:51;12.10;89.40
21033;DHT22;10675;47.976;7.824;2023-03-19T07:16:16;12.20;88.10
21033;DHT22;10675;47.976;7.824;2023-03-19T07:18:42;12.30;86.30
21033;DHT22;10675;47.976;7.824;2023-03-19T07:21:08;12.50;84.70
21033;DHT22;10675;47.976;7.824;2023-03-19T07:23:34;12.70;83.40
21033;DHT22;10675;47.976;7.824;2023-03-19T07:25:59;12.80;83.10
21033;DHT22;10675;47.976;7.824;2023-03-19T07:28:25;13.10;81.60
21033;DHT22;10675;47.976;7.824;2023-03-19T07:30:51;13.20;80.10
21033;DHT22;10675;47.976;7.824;2023-03-19T07:33:18;13.40;78.20
21033;DHT22;10675;47.976;7.824;2023-03-19T07:35:44;13.50;79.00
21033;DHT22;10675;47.976;7.824;2023-03-19T07:38:10;13.60;78.80
21033;DHT22;10675;47.976;7.824;2023-03-19T07:40:36;13.80;79.40
21033;DHT22;10675;47.976;7.824;2023-03-19T07:43:01;13.80;79.90
21033;DHT22;10675;47.976;7.824;2023-03-19T07:45:27;13.90;78.30
21033;DHT22;10675;47.976;7.824;2023-03-19T07:47:52;13.90;78.80
21033;DHT22;10675;47.976;7.824;2023-03-19T07:50:18;13.90;78.00
21033;DHT22;10675;47.976;7.824;2023-03-19T07:52:48;14.10;78.60
21033;DHT22;10675;47.976;7.824;2023-03-19T07:55:15;14.10;77.10
21033;DHT22;10675;47.976;7.824;2023-03-19T07:57:41;14.20;76.70
21033;DHT22;10675;47.976;7.824;2023-03-19T08:00:07;14.30;76.70
21033;DHT22;10675;47.976;7.824;2023-03-19T08:02:33;14.30;76.70
21033;DHT22;10675;47.976;7.824;2023-03-19T08:04:58;14.40;76.10
21033;DHT22;10675;47.976;7.824;2023-03-19T08:07:26;14.50;76.20
21033;DHT22;10675;47.976;7.824;2023-03-19T08:09:52;14.40;74.80
21033;DHT22;10675;47.976;7.824;2023-03-19T08:12:17;14.50;74.80
21033;DHT22;10675;47.976;7.824;2023-03-19T08:14:43;14.70;75.30
21033;DHT22;10675;47.976;7.824;2023-03-19T08:17:08;14.80;74.80
21033;DHT22;10675;47.976;7.824;2023-03-19T08:19:34;14.90;74.30
21033;DHT22;10675;47.976;7.824;2023-03-19T08:21:59;15.00;73.90
21033;DHT22;10675;47.976;7.824;2023-03-19T08:24:25;15.20;74.40
21033;DHT22;10675;47.976;7.824;2023-03-19T08:26:50;15.20;73.80
21033;DHT22;10675;47.976;7.824;2023-03-19T08:29:16;15.30;72.10
21033;DHT22;10675;47.976;7.824;2023-03-19T08:31:42;14.80;72.60
21033;DHT22;10675;47.976;7.824;2023-03-19T08:34:08;14.60;73.30
21033;DHT22;10675;47.976;7.824;2023-03-19T08:36:35;14.50;74.20
21033;DHT22;10675;47.976;7.824;2023-03-19T08:39:01;14.60;75.20
21033;DHT22;10675;47.976;7.824;2023-03-19T08:41:28;14.70;75.00
21033;DHT22;10675;47.976;7.824;2023-03-19T08:43:53;14.60;74.80
21033;DHT22;10675;47.976;7.824;2023-03-19T08:46:19;14.40;75.30
21033;DHT22;10675;47.976;7.824;2023-03-19T08:48:45;14.60;76.20
21033;DHT22;10675;47.976;7.824;2023-03-19T08:51:11;14.80;75.60
21033;DHT22;10675;47.976;7.824;2023-03-19T08:53:36;14.80;76.10
21033;DHT22;10675;47.976;7.824;2023-03-19T08:56:04;15.00;75.60
21033;DHT22;10675;47.976;7.824;2023-03-19T08:58:32;14.90;76.10
21033;DHT22;10675;47.976;7.824;2023-03-19T09:01:06;14.90;76.20
21033;DHT22;10675;47.976;7.824;2023-03-19T09:03:33;14.60;77.10
21033;DHT22;10675;47.976;7.824;2023-03-19T09:06:00;14.60;77.40
21033;DHT22;10675;47.976;7.824;2023-03-19T09:08:27;14.60;77.10
21033;DHT22;10675;47.976;7.824;2023-03-19T09:10:54;14.60;77.40
21033;DHT22;10675;47.976;7.824;2023-03-19T09:13:20;14.50;77.50
21033;DHT22;10675;47.976;7.824;2023-03-19T09:15:45;14.20;77.80
21033;DHT22;10675;47.976;7.824;2023-03-19T09:18:11;14.40;78.00
21033;DHT22;10675;47.976;7.824;2023-03-19T09:20:36;14.40;78.10
21033;DHT22;10675;47.976;7.824;2023-03-19T09:23:02;14.50;77.80
21033;DHT22;10675;47.976;7.824;2023-03-19T09:25:27;14.70;78.10
21033;DHT22;10675;47.976;7.824;2023-03-19T09:27:53;14.80;78.30
21033;DHT22;10675;47.976;7.824;2023-03-19T09:30:18;14.90;78.00
21033;DHT22;10675;47.976;7.824;2023-03-19T09:32:44;15.00;77.20
21033;DHT22;10675;47.976;7.824;2023-03-19T09:35:10;15.00;77.50
21033;DHT22;10675;47.976;7.824;2023-03-19T09:37:35;14.90;77.60
21033;DHT22;10675;47.976;7.824;2023-03-19T09:40:01;15.00;78.00
21033;DHT22;10675;47.976;7.824;2023-03-19T09:42:52;15.10;78.00
21033;DHT22;10675;47.976;7.824;2023-03-19T09:45:20;15.10;77.60
21033;DHT22;10675;47.976;7.824;2023-03-19T09:47:51;14.90;78.30
21033;DHT22;10675;47.976;7.824;2023-03-19T09:50:20;14.90;78.50
21033;DHT22;10675;47.976;7.824;2023-03-19T09:52:53;15.00;78.70
21033;DHT22;10675;47.976;7.824;2023-03-19T09:55:41;15.00;78.40
21033;DHT22;10675;47.976;7.824;2023-03-19T09:58:22;15.00;79.40
21033;DHT22;10675;47.976;7.824;2023-03-19T10:00:51;15.30;79.00
21033;DHT22;10675;47.976;7.824;2023-03-19T10:03:45;15.20;77.50
21033;DHT22;10675;47.976;7.824;2023-03-19T10:06:27;15.20;77.80
21033;DHT22;10675;47.976;7.824;2023-03-19T10:16:55;15.90;77.20
21033;DHT22;10675;47.976;7.824;2023-03-19T10:19:38;15.80;77.60
21033;DHT22;10675;47.976;7.824;2023-03-19T10:22:10;14.90;77.20
21033;DHT22;10675;47.976;7.824;2023-03-19T10:24:39;15.20;77.90
21033;DHT22;10675;47.976;7.824;2023-03-19T10:27:18;15.10;78.40
21033;DHT22;10675;47.976;7.824;2023-03-19T10:29:44;15.10;78.80
21033;DHT22;10675;47.976;7.824;2023-03-19T10:32:29;15.20;79.50
21033;DHT22;10675;47.976;7.824;2023-03-19T10:35:01;15.20;79.70
21033;DHT22;10675;47.976;7.824;2023-03-19T10:37:30;15.40;79.10
21033;DHT22;10675;47.976;7.824;2023-03-19T10:39:57;15.30;79.80
21033;DHT22;10675;47.976;7.824;2023-03-19T10:45:31;16.30;79.00
21033;DHT22;10675;47.976;7.824;2023-03-19T10:47:59;16.60;79.60
21033;DHT22;10675;47.976;7.824;2023-03-19T10:50:31;16.70;77.20
21033;DHT22;10675;47.976;7.824;2023-03-19T10:55:30;16.80;78.60
21033;DHT22;10675;47.976;7.824;2023-03-19T10:58:05;16.70;77.10
21033;DHT22;10675;47.976;7.824;2023-03-19T11:00:32;16.90;79.80
21033;DHT22;10675;47.976;7.824;2023-03-19T11:03:00;17.40;78.60
21033;DHT22;10675;47.976;7.824;2023-03-19T11:05:30;17.30;76.50
21033;DHT22;10675;47.976;7.824;2023-03-19T11:08:02;17.80;76.40
21033;DHT22;10675;47.976;7.824;2023-03-19T11:10:30;17.30;76.50
21033;DHT22;10675;47.976;7.824;2023-03-19T11:13:20;17.10;77.50
21033;DHT22;10675;47.976;7.824;2023-03-19T11:15:47;17.30;74.80
21033;DHT22;10675;47.976;7.824;2023-03-19T11:18:23;17.30;76.50
21033;DHT22;10675;47.976;7.824;2023-03-19T11:20:56;17.50;75.70
21033;DHT22;10675;47.976;7.824;2023-03-19T11:23:26;17.60;75.00
21033;DHT22;10675;47.976;7.824;2023-03-19T11:25:53;17.40;76.00
21033;DHT22;10675;47.976;7.824;2023-03-19T11:28:24;17.30;71.90
21033;DHT22;10675;47.976;7.824;2023-03-19T11:34:04;16.00;74.30
21033;DHT22;10675;47.976;7.824;2023-03-19T11:42:16;16.10;74.50
21033;DHT22;10675;47.976;7.824;2023-03-19T11:50:17;16.30;74.10
21033;DHT22;10675;47.976;7.824;2023-03-19T11:53:11;15.80;74.90
21033;DHT22;10675;47.976;7.824;2023-03-19T12:20:29;16.30;75.40
21033;DHT22;10675;47.976;7.824;2023-03-19T12:26:06;16.10;75.80
21033;DHT22;10675;47.976;7.824;2023-03-19T12:29:03;16.00;76.00
21033;DHT22;10675;47.976;7.824;2023-03-19T12:31:51;15.70;75.90
21033;DHT22;10675;47.976;7.824;2023-03-19T12:37:29;15.50;77.00
21033;DHT22;10675;47.976;7.824;2023-03-19T12:40:26;15.00;78.10
21033;DHT22;10675;47.976;7.824;2023-03-19T12:42:56;15.20;78.70
21033;DHT22;10675;47.976;7.824;2023-03-19T12:45:30;15.20;77.90
21033;DHT22;10675;47.976;7.824;2023-03-19T12:48:01;15.00;79.40
21033;DHT22;10675;47.976;7.824;2023-03-19T12:50:30;15.10;79.40
21033;DHT22;10675;47.976;7.824;2023-03-19T12:52:59;15.30;80.60
21033;DHT22;10675;47.976;7.824;2023-03-19T12:55:46;15.30;80.40
21033;DHT22;10675;47.976;7.824;2023-03-19T12:58:21;15.30;80.70
21033;DHT22;10675;47.976;7.824;2023-03-19T13:00:53;15.10;81.20
21033;DHT22;10675;47.976;7.824;2023-03-19T13:03:30;15.10;80.80
21033;DHT22;10675;47.976;7.824;2023-03-19T13:09:31;15.20;81.20
21033;DHT22;10675;47.976;7.824;2023-03-19T13:12:10;15.00;82.00
21033;DHT22;10675;47.976;7.824;2023-03-19T13:14:54;15.20;82.30
21033;DHT22;10675;47.976;7.824;2023-03-19T13:20:53;15.40;82.30
21033;DHT22;10675;47.976;7.824;2023-03-19T13:22:55;15.50;81.20
21033;DHT22;10675;47.976;7.824;2023-03-19T13:25:29;15.00;82.00
21033;DHT22;10675;47.976;7.824;2023-03-19T13:27:56;15.30;82.60
21033;DHT22;10675;47.976;7.824;2023-03-19T13:30:23;14.90;83.90
21033;DHT22;10675;47.976;7.824;2023-03-19T13:32:59;15.10;84.40
21033;DHT22;10675;47.976;7.824;2023-03-19T13:40:46;15.00;81.90
21033;DHT22;10675;47.976;7.824;2023-03-19T13:46:03;15.20;82.40
21033;DHT22;10675;47.976;7.824;2023-03-19T13:48:37;15.20;83.50
21033;DHT22;10675;47.976;7.824;2023-03-19T13:59:34;15.10;82.80
21033;DHT22;10675;47.976;7.824;2023-03-19T14:02:02;14.90;84.20
21033;DHT22;10675;47.976;7.824;2023-03-19T14:04:33;15.10;83.60
21033;DHT22;10675;47.976;7.824;2023-03-19T14:07:20;15.30;83.90
21033;DHT22;10675;47.976;7.824;2023-03-19T14:09:48;15.40;83.60
21033;DHT22;10675;47.976;7.824;2023-03-19T14:15:02;16.10;81.70
21033;DHT22;10675;47.976;7.824;2023-03-19T14:17:37;16.60;79.80
21033;DHT22;10675;47.976;7.824;2023-03-19T14:25:27;15.40;82.90
21033;DHT22;10675;47.976;7.824;2023-03-19T14:27:55;15.40;83.50
21033;DHT22;10675;47.976;7.824;2023-03-19T14:30:34;15.40;81.70
21033;DHT22;10675;47.976;7.824;2023-03-19T14:33:05;15.10;82.90
21033;DHT22;10675;47.976;7.824;2023-03-19T14:35:38;15.10;82.70
21033;DHT22;10675;47.976;7.824;2023-03-19T14:38:12;15.00;82.50
21033;DHT22;10675;47.976;7.824;2023-03-19T14:40:46;14.90;82.90
21033;DHT22;10675;47.976;7.824;2023-03-19T14:52:02;14.60;85.20
21033;DHT22;10675;47.976;7.824;2023-03-19T14:54:40;14.40;87.10
21033;DHT22;10675;47.976;7.824;2023-03-19T14:57:15;14.50;89.10
21033;DHT22;10675;47.976;7.824;2023-03-19T14:59:41;14.40;87.90
21033;DHT22;10675;47.976;7.824;2023-03-19T15:04:44;14.10;90.50
21033;DHT22;10675;47.976;7.824;2023-03-19T15:07:17;14.00;91.20
21033;DHT22;10675;47.976;7.824;2023-03-19T15:09:44;13.90;92.70
21033;DHT22;10675;47.976;7.824;2023-03-19T15:14:52;14.00;93.60
21033;DHT22;10675;47.976;7.824;2023-03-19T15:17:27;14.00;93.70
21033;DHT22;10675;47.976;7.824;2023-03-19T15:19:55;13.90;93.60
21033;DHT22;10675;47.976;7.824;2023-03-19T15:22:29;14.10;94.10
21033;DHT22;10675;47.976;7.824;2023-03-19T15:25:10;14.30;93.80
21033;DHT22;10675;47.976;7.824;2023-03-19T15:27:36;14.50;94.00
21033;DHT22;10675;47.976;7.824;2023-03-19T15:30:17;14.50;92.60
21033;DHT22;10675;47.976;7.824;2023-03-19T15:32:43;14.50;92.10
21033;DHT22;10675;47.976;7.824;2023-03-19T15:35:09;14.50;92.00
21033;DHT22;10675;47.976;7.824;2023-03-19T15:37:47;14.50;91.80
21033;DHT22;10675;47.976;7.824;2023-03-19T15:40:16;14.60;91.00
21033;DHT22;10675;47.976;7.824;2023-03-19T15:42:46;14.70;90.90
21033;DHT22;10675;47.976;7.824;2023-03-19T15:45:14;15.00;90.30
21033;DHT22;10675;47.976;7.824;2023-03-19T15:47:56;14.90;89.50
21033;DHT22;10675;47.976;7.824;2023-03-19T15:50:24;15.00;88.20
21033;DHT22;10675;47.976;7.824;2023-03-19T15:53:05;15.10;87.80
21033;DHT22;10675;47.976;7.824;2023-03-19T15:55:34;15.20;86.90
21033;DHT22;10675;47.976;7.824;2023-03-19T15:58:05;15.20;85.80
21033;DHT22;10675;47.976;7.824;2023-03-19T16:00:33;15.20;84.90
21033;DHT22;10675;47.976;7.824;2023-03-19T16:02:59;15.20;84.80
21033;DHT22;10675;47.976;7.824;2023-03-19T16:05:28;15.20;85.50
21033;DHT22;10675;47.976;7.824;2023-03-19T16:07:59;15.10;84.20
21033;DHT22;10675;47.976;7.824;2023-03-19T16:10:41;15.20;84.80
21033;DHT22;10675;47.976;7.824;2023-03-19T16:13:25;15.10;85.40
21033;DHT22;10675;47.976;7.824;2023-03-19T16:18:28;15.00;84.90
21033;DHT22;10675;47.976;7.824;2023-03-19T16:21:15;15.10;85.00
21033;DHT22;10675;47.976;7.824;2023-03-19T16:23:45;15.60;84.20
21033;DHT22;10675;47.976;7.824;2023-03-19T16:26:29;16.60;81.10
21033;DHT22;10675;47.976;7.824;2023-03-19T16:31:56;16.20;80.10
21033;DHT22;10675;47.976;7.824;2023-03-19T16:34:27;15.70;81.30
21033;DHT22;10675;47.976;7.824;2023-03-19T16:36:53;15.40;82.40
21033;DHT22;10675;47.976;7.824;2023-03-19T16:39:34;15.30;83.10
21033;DHT22;10675;47.976;7.824;2023-03-19T16:42:14;15.00;84.20
21033;DHT22;10675;47.976;7.824;2023-03-19T16:44:41;15.00;85.70
21033;DHT22;10675;47.976;7.824;2023-03-19T16:47:12;14.90;85.90
21033;DHT22;10675;47.976;7.824;2023-03-19T16:49:38;14.80;86.50
21033;DHT22;10675;47.976;7.824;2023-03-19T16:52:04;14.80;86.70
21033;DHT22;10675;47.976;7.824;2023-03-19T16:54:30;14.80;87.00
21033;DHT22;10675;47.976;7.824;2023-03-19T16:56:56;14.60;87.20
21033;DHT22;10675;47.976;7.824;2023-03-19T16:59:28;14.60;87.70
21033;DHT22;10675;47.976;7.824;2023-03-19T17:01:55;14.40;88.30
21033;DHT22;10675;47.976;7.824;2023-03-19T17:04:21;14.30;89.00
21033;DHT22;10675;47.976;7.824;2023-03-19T17:06:48;14.10;89.90
21033;DHT22;10675;47.976;7.824;2023-03-19T17:09:14;14.10;90.20
21033;DHT22;10675;47.976;7.824;2023-03-19T17:11:41;14.00;90.30
21033;DHT22;10675;47.976;7.824;2023-03-19T17:14:15;13.90;90.70
21033;DHT22;10675;47.976;7.824;2023-03-19T17:16:42;13.90;90.80
21033;DHT22;10675;47.976;7.824;2023-03-19T17:19:34;13.80;91.00
21033;DHT22;10675;47.976;7.824;2023-03-19T17:22:00;13.70;91.30
21033;DHT22;10675;47.976;7.824;2023-03-19T17:24:31;13.60;91.50
21033;DHT22;10675;47.976;7.824;2023-03-19T17:26:59;13.50;91.70
21033;DHT22;10675;47.976;7.824;2023-03-19T17:29:25;13.50;91.90
21033;DHT22;10675;47.976;7.824;2023-03-19T17:31:52;13.50;92.20